createdAt,value
2022-10-16T09:42:43.826Z,1.00
2022-10-16T09:45:24.968Z,99.90
2022-10-16T09:48:01.456Z,30.90
2022-10-16T09:50:38.168Z,1.00
2022-10-16T09:53:07.873Z,1.00
2022-10-16T09:55:36.014Z,1.00
2022-10-16T09:58:04.001Z,1.00
2022-10-16T10:00:33.115Z,1.00
2022-10-16T10:03:01.185Z,1.00
2022-10-16T10:05:31.037Z,1.00
2022-10-16T10:08:01.872Z,1.00
2022-10-16T10:10:32.087Z,99.90
2022-10-16T10:13:00.628Z,99.90
2022-10-16T10:15:32.026Z,99.90
2022-10-16T10:18:00.682Z,99.90
2022-10-16T10:20:31.593Z,99.90
2022-10-16T10:23:01.123Z,99.90
2022-10-16T10:25:43.522Z,99.90
2022-10-16T10:28:32.321Z,99.90
2022-10-16T10:31:06.027Z,99.90
2022-10-16T10:33:43.967Z,99.90
2022-10-16T10:36:24.018Z,99.90
2022-10-16T10:38:58.530Z,99.90
2022-10-16T10:42:02.510Z,99.90
2022-10-16T10:44:53.342Z,99.90
2022-10-16T10:47:32.079Z,99.90
2022-10-16T10:50:08.949Z,99.90
2022-10-16T10:53:00.165Z,99.90
2022-10-16T10:55:39.058Z,99.90
2022-10-16T10:58:26.594Z,99.90
2022-10-16T11:01:03.246Z,99.90
2022-10-16T11:03:58.470Z,99.90
2022-10-16T11:06:30.772Z,99.90
2022-10-16T11:09:04.415Z,99.90
2022-10-16T11:11:40.101Z,99.90
2022-10-16T11:14:16.649Z,99.90
2022-10-16T11:16:50.251Z,99.90
2022-10-16T11:19:35.824Z,99.90
2022-10-16T11:22:06.697Z,99.90
2022-10-16T11:24:43.506Z,99.90
2022-10-16T11:27:18.961Z,99.90
2022-10-16T11:29:49.196Z,99.90
2022-10-16T11:32:24.242Z,99.90
2022-10-16T11:34:55.978Z,99.90
2022-10-16T11:37:29.959Z,99.90
2022-10-16T11:40:05.983Z,99.90
2022-10-16T11:42:41.996Z,99.90
2022-10-16T11:45:20.853Z,99.90
2022-10-16T11:48:00.295Z,99.90
2022-10-16T11:50:33.609Z,99.90
2022-10-16T11:53:06.755Z,99.90
2022-10-16T11:55:41.750Z,99.90
2022-10-16T11:58:22.743Z,99.90
2022-10-16T12:00:58.652Z,99.90
2022-10-16T12:03:32.066Z,99.90
2022-10-16T12:06:15.295Z,99.90
2022-10-16T12:08:44.885Z,99.90
2022-10-16T12:11:26.698Z,99.90
2022-10-16T12:14:08.247Z,99.90
2022-10-16T12:16:36.303Z,99.90
2022-10-16T12:19:16.147Z,99.90
2022-10-16T12:21:45.308Z,99.90
2022-10-16T12:24:30.754Z,99.90
2022-10-16T12:26:59.011Z,99.90
2022-10-16T12:29:35.942Z,99.90
2022-10-16T12:32:06.763Z,99.90
2022-10-16T12:34:41.995Z,99.90
2022-10-16T12:37:13.802Z,99.90
2022-10-16T12:39:42.202Z,99.90
2022-10-16T12:42:24.727Z,99.90
2022-10-16T12:44:54.947Z,99.90
2022-10-16T12:47:25.266Z,99.90
2022-10-16T12:49:55.565Z,99.90
2022-10-16T12:52:30.174Z,99.90
2022-10-16T12:55:01.829Z,99.90
2022-10-16T12:57:51.481Z,99.90
2022-10-16T13:00:27.763Z,99.90
2022-10-16T13:03:23.474Z,99.90
2022-10-16T13:06:02.942Z,99.90
2022-10-16T13:08:52.662Z,99.90
2022-10-16T13:11:29.601Z,99.90
2022-10-16T13:14:12.045Z,99.90
2022-10-16T13:16:52.421Z,99.90
2022-10-16T13:19:31.271Z,99.90
2022-10-16T13:22:05.657Z,99.90
2022-10-16T13:24:50.747Z,99.90
2022-10-16T13:27:31.425Z,99.90
2022-10-16T13:30:10.756Z,99.90
2022-10-16T13:32:41.208Z,99.90
2022-10-16T13:35:22.358Z,1.00
2022-10-16T13:37:50.436Z,1.00
2022-10-16T13:40:24.038Z,1.00
2022-10-16T13:42:53.034Z,1.00
2022-10-16T13:45:22.267Z,1.00
2022-10-16T13:47:51.693Z,1.00
2022-10-16T13:50:20.742Z,1.00
2022-10-16T13:52:50.467Z,1.00
2022-10-16T13:55:20.607Z,1.00
2022-10-16T13:57:48.617Z,1.00
2022-10-16T14:00:25.262Z,1.00
2022-10-16T14:03:00.879Z,1.00
2022-10-16T14:05:29.087Z,1.00
2022-10-16T14:07:58.378Z,1.00
2022-10-16T14:10:30.874Z,1.00
2022-10-16T14:13:01.563Z,32.60
2022-10-16T14:15:31.259Z,50.30
2022-10-16T14:18:01.375Z,48.50
2022-10-16T14:20:31.715Z,57.40
2022-10-16T14:23:04.318Z,99.90
2022-10-16T14:25:34.015Z,97.90
2022-10-16T14:28:05.114Z,99.90
2022-10-16T14:30:34.624Z,99.90
2022-10-16T14:33:06.170Z,99.90
2022-10-16T14:35:35.747Z,99.90
2022-10-16T14:38:06.749Z,99.90
2022-10-16T14:43:05.970Z,22.00
2022-10-16T14:45:36.588Z,99.90
2022-10-16T14:48:19.672Z,1.00
2022-10-16T14:50:48.244Z,98.70
2022-10-16T14:53:16.647Z,1.00
2022-10-16T14:55:45.335Z,99.90
2022-10-16T14:58:17.118Z,99.90
2022-10-16T15:00:45.174Z,99.90
2022-10-16T15:03:14.781Z,99.90
2022-10-16T15:05:42.780Z,1.00
2022-10-16T15:08:10.736Z,1.00
2022-10-16T15:10:42.490Z,4.80
2022-10-16T15:13:14.620Z,99.90
2022-10-16T15:15:45.705Z,42.40
2022-10-16T15:18:20.814Z,48.10
2022-10-16T15:20:51.570Z,46.30
2022-10-16T15:23:21.529Z,99.90
2022-10-16T15:25:51.505Z,32.10
2022-10-16T15:28:20.540Z,99.90
2022-10-16T15:30:48.969Z,1.00
2022-10-16T15:33:20.061Z,99.90
2022-10-16T15:35:49.872Z,99.90
2022-10-16T15:38:19.361Z,99.90
2022-10-16T15:40:50.421Z,99.90
2022-10-16T15:43:18.696Z,99.90
2022-10-16T15:45:47.097Z,99.90
2022-10-16T15:48:15.727Z,1.00
2022-10-16T15:53:17.908Z,99.90
2022-10-16T15:55:45.894Z,99.90
2022-10-16T15:58:13.882Z,1.00
2022-10-16T16:00:41.919Z,1.00
2022-10-16T16:03:09.890Z,99.90
2022-10-16T16:05:45.663Z,60.20
2022-10-16T16:08:15.863Z,1.00
2022-10-16T16:10:43.853Z,1.00
2022-10-16T16:13:11.942Z,1.00
2022-10-16T16:15:41.678Z,99.90
2022-10-16T16:18:10.809Z,1.00
2022-10-16T16:20:38.980Z,1.00
2022-10-16T16:23:06.964Z,99.90
2022-10-16T16:25:36.337Z,1.00
2022-10-16T16:28:04.587Z,1.00
2022-10-16T16:30:32.611Z,1.00
2022-10-16T16:33:00.611Z,99.90
2022-10-16T16:35:28.621Z,99.90
2022-10-16T16:37:56.574Z,99.90
2022-10-16T16:40:24.555Z,99.90
2022-10-16T16:42:53.908Z,1.00
2022-10-16T16:45:21.984Z,99.90
2022-10-16T16:47:49.978Z,99.90
2022-10-16T16:50:17.934Z,99.90
2022-10-16T16:52:45.940Z,99.90
2022-10-16T16:55:13.940Z,1.00
2022-10-16T16:57:41.970Z,99.90
2022-10-16T17:00:12.597Z,99.90
2022-10-16T17:02:44.096Z,99.90
2022-10-16T17:05:12.075Z,99.90
2022-10-16T17:07:41.808Z,99.90
2022-10-16T17:10:10.337Z,1.00
2022-10-16T17:12:38.365Z,1.00
2022-10-16T17:15:07.149Z,1.00
2022-10-16T17:17:36.505Z,1.00
2022-10-16T17:20:04.953Z,1.00
2022-10-16T17:22:32.926Z,1.00
2022-10-16T17:25:03.075Z,99.90
2022-10-16T17:27:31.090Z,99.90
2022-10-16T17:29:59.131Z,1.00
2022-10-16T17:32:27.427Z,1.00
2022-10-16T17:34:56.970Z,99.90
2022-10-16T17:37:24.940Z,99.90
2022-10-16T17:39:53.096Z,99.90
2022-10-16T17:42:21.202Z,1.00
2022-10-16T17:44:49.138Z,1.00
2022-10-16T17:47:17.121Z,1.00
2022-10-16T17:49:45.095Z,1.00
2022-10-16T17:52:14.613Z,1.00
2022-10-16T17:54:44.164Z,88.30
2022-10-16T17:57:12.257Z,99.90
2022-10-16T17:59:40.201Z,1.00
2022-10-16T18:02:08.425Z,99.90
2022-10-16T18:04:36.434Z,99.90
2022-10-16T18:07:04.581Z,99.90
2022-10-16T18:09:34.102Z,1.00
2022-10-16T18:12:02.237Z,1.00
2022-10-16T18:14:32.220Z,1.00
2022-10-16T18:17:00.509Z,1.00
2022-10-16T18:19:29.179Z,1.00
2022-10-16T18:21:57.463Z,1.00
2022-10-16T18:24:26.078Z,1.00
2022-10-16T18:26:57.353Z,1.00
2022-10-16T18:29:26.717Z,99.90
2022-10-16T18:31:55.141Z,1.00
2022-10-16T18:34:23.211Z,1.00
2022-10-16T18:36:54.231Z,99.90
2022-10-16T18:39:24.739Z,1.00
2022-10-16T18:41:59.464Z,99.90
2022-10-16T18:44:31.114Z,99.90
2022-10-16T18:46:59.256Z,1.00
2022-10-16T18:49:27.415Z,1.00
2022-10-16T18:51:57.141Z,1.00
2022-10-16T18:54:26.053Z,1.00
2022-10-16T18:56:54.311Z,1.00
2022-10-16T18:59:22.339Z,1.00
2022-10-16T19:01:52.530Z,86.40
2022-10-16T19:19:23.870Z,1.00
2022-10-16T19:21:56.471Z,1.00
2022-10-16T19:24:24.643Z,1.00
2022-10-16T19:26:52.616Z,1.00
2022-10-16T19:29:20.597Z,18.80
2022-10-16T19:31:48.582Z,1.00
2022-10-16T19:34:17.896Z,1.00
2022-10-16T19:36:45.870Z,1.00
2022-10-16T19:39:16.705Z,1.00
2022-10-16T19:41:45.305Z,1.00
2022-10-16T19:44:14.884Z,16.20
2022-10-16T19:46:43.754Z,1.00
2022-10-16T19:49:13.860Z,1.00
2022-10-16T19:51:43.217Z,1.00
2022-10-16T19:54:13.925Z,1.00
2022-10-16T19:56:42.622Z,1.00
2022-10-16T19:59:13.054Z,1.00
2022-10-16T20:01:41.283Z,2.50
2022-10-16T20:04:09.336Z,66.50
2022-10-16T20:06:37.432Z,61.80
2022-10-16T20:09:07.360Z,47.10
2022-10-16T20:11:36.600Z,16.20
2022-10-16T20:14:06.346Z,99.90
2022-10-16T20:16:34.724Z,29.40
2022-10-16T20:19:04.177Z,27.90
2022-10-16T20:21:33.790Z,1.00
2022-10-16T20:26:34.128Z,68.20
2022-10-16T20:29:02.372Z,18.00
2022-10-16T20:31:32.652Z,1.00
2022-10-16T20:34:04.180Z,90.80
2022-10-16T20:36:33.455Z,99.90
2022-10-16T20:39:02.302Z,99.90
2022-10-16T20:41:30.357Z,99.90
2022-10-16T20:43:59.703Z,99.90
2022-10-16T20:46:29.742Z,99.90
2022-10-16T20:49:06.143Z,99.90
2022-10-16T20:51:39.567Z,99.90
2022-10-16T20:54:08.004Z,99.90
2022-10-16T20:56:37.536Z,99.90
2022-10-16T20:59:07.347Z,99.90
2022-10-16T21:01:36.710Z,99.90
2022-10-16T21:04:06.957Z,99.90
2022-10-16T21:06:37.049Z,99.90
2022-10-16T21:09:06.614Z,99.90
2022-10-16T21:11:37.435Z,99.90
2022-10-16T21:14:09.261Z,99.90
2022-10-16T21:16:37.342Z,99.90
2022-10-16T21:19:05.785Z,99.90
2022-10-16T21:21:35.453Z,99.90
2022-10-16T21:24:03.507Z,99.90
2022-10-16T21:26:32.654Z,99.90
2022-10-16T21:29:02.875Z,99.90
2022-10-16T21:31:32.971Z,99.90
2022-10-16T21:36:30.934Z,99.90
2022-10-16T21:39:02.200Z,99.90
2022-10-16T21:41:30.806Z,99.90
2022-10-16T21:44:00.003Z,99.90
2022-10-16T21:46:30.235Z,99.90
2022-10-16T21:49:01.249Z,99.90
2022-10-16T21:53:58.925Z,99.90
2022-10-16T21:56:27.113Z,99.90
2022-10-16T21:58:55.279Z,99.90
2022-10-16T22:01:25.575Z,99.90
2022-10-16T22:03:53.658Z,99.90
